Time;durP1;ratioP1;P1;durP2;ratioP2;P2;SDS_P1;SDS_P2;PMS_P1;PMS_P2;Temp;Humidity;BMP_temperature;BMP_pressure;BME280_temperature;BME280_humidity;BME280_pressure;Samples;Min_cycle;Max_cycle;Signal;HPM_P1;HPM_P2
2021/11/23 00:03:48;;;;;;;22.45;12.63;;;;;;;4.68;88.51;103207.56;10586040;28;20063;-78
2021/11/23 00:08:49;;;;;;;23.73;14.68;;;;;;;4.77;89.89;103196.22;10569250;28;20466;-78
2021/11/23 00:13:49;;;;;;;29.55;17.95;;;;;;;4.84;90.47;103195.69;10568786;28;20038;-78
2021/11/23 00:18:50;;;;;;;30.70;20.98;;;;;;;4.99;91.24;103193.81;10567901;28;20134;-78
2021/11/23 00:23:50;;;;;;;33.97;21.60;;;;;;;5.16;92.06;103195.31;10569388;28;20055;-78
2021/11/23 00:28:50;;;;;;;32.63;20.98;;;;;;;5.39;92.85;103195.56;10588813;28;20451;-78
2021/11/23 00:33:51;;;;;;;76.15;20.70;;;;;;;5.59;93.37;103189.66;10584139;28;20043;-78
2021/11/23 00:38:51;;;;;;;25.42;15.98;;;;;;;5.79;93.78;103183.69;10566595;28;20034;-78
2021/11/23 00:43:52;;;;;;;26.65;13.85;;;;;;;5.94;93.88;103187.16;10585713;28;20036;-78
2021/11/23 00:48:52;;;;;;;17.02;12.27;;;;;;;6.09;94.20;103187.84;10584245;28;20035;-78
2021/11/23 00:53:53;;;;;;;15.65;10.32;;;;;;;6.19;94.21;103185.34;10566107;28;20039;-78
2021/11/23 00:58:53;;;;;;;19.00;10.30;;;;;;;6.28;94.22;103188.22;10585052;28;20036;-78
2021/11/23 01:03:53;;;;;;;12.68;7.93;;;;;;;6.38;94.58;103195.63;10585023;28;20071;-78
2021/11/23 01:08:54;;;;;;;10.75;7.70;;;;;;;6.46;94.75;103185.16;10567057;28;20027;-78
2021/11/23 01:13:54;;;;;;;12.63;6.10;;;;;;;6.52;94.46;103182.84;10548792;28;20149;-78
2021/11/23 01:18:54;;;;;;;14.23;6.50;;;;;;;6.50;94.26;103182.09;10567572;28;20051;-78
2021/11/23 01:23:55;;;;;;;14.10;4.97;;;;;;;6.55;94.15;103173.69;10567387;28;20032;-78
2021/11/23 01:28:55;;;;;;;8.45;4.43;;;;;;;6.60;94.02;103174.19;10586142;28;20067;-78
2021/11/23 01:33:56;;;;;;;8.38;5.07;;;;;;;6.66;94.58;103168.34;10584523;28;20031;-78
2021/11/23 01:38:56;;;;;;;7.35;4.28;;;;;;;6.71;94.58;103168.00;10582804;28;20466;-78
2021/11/23 01:43:57;;;;;;;12.30;4.45;;;;;;;6.76;94.31;103171.19;10583056;28;20050;-78
2021/11/23 01:48:57;;;;;;;5.15;3.50;;;;;;;6.79;94.58;103170.09;10583399;28;20436;-78
2021/11/23 01:53:57;;;;;;;7.50;4.28;;;;;;;6.85;94.55;103177.72;10584493;28;20088;-78
2021/11/23 01:58:58;;;;;;;5.15;4.35;;;;;;;6.91;94.59;103167.34;10584363;28;20478;-78
2021/11/23 02:03:59;;;;;;;7.30;3.95;;;;;;;6.94;94.78;103167.09;10547280;28;20051;-78
2021/11/23 02:08:59;;;;;;;6.55;3.38;;;;;;;6.97;94.55;103157.94;10585423;28;20055;-79
2021/11/23 02:13:59;;;;;;;9.85;4.10;;;;;;;7.01;94.67;103161.25;10565406;28;20071;-78
2021/11/23 02:19:00;;;;;;;9.57;2.45;;;;;;;7.05;94.80;103152.81;10574896;28;20038;-79
2021/11/23 02:24:01;;;;;;;3.17;2.88;;;;;;;7.10;94.63;103158.69;10559267;28;20027;-79
2021/11/23 02:29:01;;;;;;;7.22;3.53;;;;;;;7.14;95.25;103146.69;10592460;28;20093;-78
2021/11/23 02:34:02;;;;;;;8.05;4.18;;;;;;;7.21;95.01;103147.94;10590106;28;20081;-78
2021/11/23 02:39:03;;;;;;;13.13;2.72;;;;;;;7.28;95.09;103142.09;10590693;28;20036;-78
2021/11/23 02:44:04;;;;;;;7.65;3.25;;;;;;;7.32;95.18;103132.78;10556264;28;20028;-79
2021/11/23 02:49:05;;;;;;;5.25;2.80;;;;;;;7.35;95.27;103136.06;10590649;28;20108;-79
2021/11/23 02:54:05;;;;;;;6.68;3.55;;;;;;;7.39;95.34;103134.00;10576254;28;20054;-78
2021/11/23 02:59:06;;;;;;;7.18;3.75;;;;;;;7.43;95.46;103127.38;10576151;28;20077;-79
2021/11/23 03:04:06;;;;;;;8.05;3.38;;;;;;;7.47;95.47;103120.78;10572766;28;20035;-79
2021/11/23 03:09:07;;;;;;;12.60;3.65;;;;;;;7.50;95.26;103107.03;10590014;28;20489;-78
2021/11/23 03:14:08;;;;;;;4.88;3.00;;;;;;;7.47;94.63;103104.59;10556065;28;20543;-79
2021/11/23 03:19:08;;;;;;;10.23;3.17;;;;;;;7.29;93.44;103106.91;10589675;28;20123;-76
2021/11/23 03:24:09;;;;;;;12.00;3.55;;;;;;;7.25;93.95;103105.44;10570550;28;20498;-79
2021/11/23 03:29:09;;;;;;;6.72;4.47;;;;;;;7.36;94.69;103113.53;10570401;28;20048;-78
2021/11/23 03:34:10;;;;;;;5.95;3.13;;;;;;;7.47;95.30;103115.38;10590525;28;20035;-78
2021/11/23 03:39:11;;;;;;;8.18;3.95;;;;;;;7.56;95.40;103111.06;10588965;28;20043;-78
2021/11/23 03:44:11;;;;;;;11.27;3.92;;;;;;;7.58;95.42;103119.91;10587694;28;20043;-78
2021/11/23 03:49:11;;;;;;;13.85;3.63;;;;;;;7.60;95.42;103116.09;10587102;28;20028;-79
2021/11/23 03:54:12;;;;;;;4.00;2.50;;;;;;;7.65;95.67;103110.31;10587910;28;20050;-78
2021/11/23 03:59:12;;;;;;;8.23;2.63;;;;;;;7.71;95.66;103111.69;10570407;28;20059;-78
2021/11/23 04:04:12;;;;;;;10.18;3.80;;;;;;;7.75;95.90;103108.59;10570143;28;20122;-78
2021/11/23 04:09:13;;;;;;;2.75;1.45;;;;;;;7.82;95.74;103103.59;10586777;28;20460;-78
2021/11/23 04:14:15;;;;;;;4.70;2.17;;;;;;;7.90;95.75;103101.94;10587965;28;20036;-78
2021/11/23 04:19:15;;;;;;;4.97;2.50;;;;;;;7.95;95.71;103115.09;10568976;28;20049;-78
2021/11/23 04:24:16;;;;;;;6.40;3.15;;;;;;;7.96;95.47;103111.38;10587631;28;20070;-78
2021/11/23 04:29:16;;;;;;;13.80;2.55;;;;;;;8.00;95.24;103109.28;10567716;28;20067;-79
2021/11/23 04:34:17;;;;;;;4.20;2.03;;;;;;;8.03;95.46;103107.19;10586200;28;20035;-79
2021/11/23 04:39:17;;;;;;;3.22;2.10;;;;;;;8.09;95.85;103111.22;10587858;28;20040;-79
2021/11/23 04:44:17;;;;;;;7.43;2.97;;;;;;;8.11;95.42;103093.09;10586918;28;20101;-79
2021/11/23 04:49:18;;;;;;;2.78;2.20;;;;;;;8.10;95.66;103096.75;10586552;28;20043;-79
2021/11/23 04:54:18;;;;;;;2.72;2.28;;;;;;;8.09;95.60;103086.94;10585220;28;20112;-79
2021/11/23 04:59:19;;;;;;;2.17;1.77;;;;;;;8.11;95.47;103082.28;10550594;28;20043;-78
2021/11/23 05:04:19;;;;;;;2.20;1.77;;;;;;;8.13;95.62;103086.56;10550628;28;20043;-79
2021/11/23 05:09:20;;;;;;;3.25;2.40;;;;;;;8.20;95.76;103083.34;10584971;28;20084;-80
2021/11/23 05:14:22;;;;;;;11.02;2.72;;;;;;;8.25;95.71;103083.81;10572794;28;20043;-79
2021/11/23 05:19:23;;;;;;;4.70;2.40;;;;;;;8.22;95.65;103082.22;10601847;28;20149;-80
2021/11/23 05:24:23;;;;;;;4.50;3.05;;;;;;;8.21;96.07;103082.38;10587053;28;20375;-79
2021/11/23 05:29:23;;;;;;;5.47;2.38;;;;;;;8.18;95.83;103080.78;10584041;28;20096;-79
2021/11/23 05:34:24;;;;;;;1.92;1.83;;;;;;;8.21;95.56;103085.94;10567028;28;20528;-79
2021/11/23 05:39:26;;;;;;;15.13;4.20;;;;;;;8.25;95.85;103083.81;10566796;28;20111;-82
2021/11/23 05:44:26;;;;;;;4.00;2.22;;;;;;;8.29;95.48;103080.72;10583469;28;20390;-79
2021/11/23 05:49:26;;;;;;;6.50;3.53;;;;;;;8.29;95.74;103080.72;10518714;28;20048;-79
2021/11/23 05:54:27;;;;;;;10.05;3.25;;;;;;;8.31;95.91;103077.91;10583411;28;20382;-80
2021/11/23 05:59:27;;;;;;;2.90;2.17;;;;;;;8.34;95.69;103074.97;10585198;28;20051;-81
2021/11/23 06:04:27;;;;;;;9.40;2.85;;;;;;;8.35;95.75;103073.97;10583852;28;20074;-81
2021/11/23 06:09:28;;;;;;;5.30;3.05;;;;;;;8.35;95.89;103082.06;10583961;28;20464;-79
2021/11/23 06:14:28;;;;;;;5.30;3.40;;;;;;;8.36;95.24;103079.25;10583298;28;20044;-79
2021/11/23 06:19:29;;;;;;;8.90;3.38;;;;;;;8.36;95.32;103081.09;10583789;28;20040;-79
2021/11/23 06:24:29;;;;;;;2.70;2.50;;;;;;;8.38;95.39;103088.09;10566183;28;20081;-80
2021/11/23 06:29:29;;;;;;;5.93;3.75;;;;;;;8.47;96.11;103075.66;10531086;28;20514;-79
2021/11/23 06:34:30;;;;;;;8.38;2.53;;;;;;;8.52;95.64;103086.06;10583700;28;20079;-79
2021/11/23 06:39:30;;;;;;;6.72;3.00;;;;;;;8.56;95.69;103088.38;10584811;28;20118;-79
2021/11/23 06:44:31;;;;;;;11.32;4.00;;;;;;;8.53;95.26;103095.88;10584655;28;20044;-79
2021/11/23 06:49:31;;;;;;;4.30;2.72;;;;;;;8.60;96.00;103100.63;10583815;28;20028;-79
2021/11/23 06:54:31;;;;;;;7.45;2.13;;;;;;;8.69;95.90;103100.84;10582626;28;20047;-79
2021/11/23 06:59:32;;;;;;;6.78;2.80;;;;;;;8.69;95.53;103099.00;10581594;28;20035;-78
2021/11/23 07:04:33;;;;;;;7.13;2.70;;;;;;;8.63;95.45;103101.38;10568310;28;20036;-79
2021/11/23 07:09:33;;;;;;;3.50;1.65;;;;;;;8.65;95.47;103111.06;10570116;28;20467;-79
2021/11/23 07:14:34;;;;;;;3.75;1.83;;;;;;;8.67;95.55;103117.16;10571378;28;20040;-79
2021/11/23 07:19:34;;;;;;;6.75;1.70;;;;;;;8.64;95.49;103120.13;10588660;28;20544;-79
2021/11/23 07:24:34;;;;;;;4.35;2.20;;;;;;;8.54;94.54;103119.19;10554796;28;20458;-79
2021/11/23 07:29:35;;;;;;;6.80;2.55;;;;;;;8.47;94.30;103121.56;10596257;28;20391;-79
2021/11/23 07:34:35;;;;;;;8.02;3.47;;;;;;;8.48;94.56;103117.88;10593024;28;20089;-79
2021/11/23 07:39:36;;;;;;;6.85;3.70;;;;;;;8.65;95.42;103129.06;10587240;28;20115;-79
2021/11/23 07:44:37;;;;;;;12.13;3.40;;;;;;;8.77;95.98;103131.59;10587121;28;20039;-79
2021/11/23 07:49:37;;;;;;;9.48;4.38;;;;;;;8.86;96.06;103138.06;10588122;28;20137;-79
2021/11/23 07:54:37;;;;;;;8.43;4.22;;;;;;;8.98;96.09;103142.41;10586500;28;20087;-79
2021/11/23 07:59:38;;;;;;;8.02;4.35;;;;;;;9.04;95.72;103144.59;10587748;28;20032;-79
2021/11/23 08:04:38;;;;;;;5.10;3.03;;;;;;;9.12;95.10;103149.31;10586019;28;20090;-80
2021/11/23 08:09:39;;;;;;;7.82;4.35;;;;;;;9.13;94.77;103151.06;10586782;28;20027;-79
2021/11/23 08:14:39;;;;;;;13.00;3.75;;;;;;;8.94;93.46;103154.50;10586812;28;20491;-79
2021/11/23 08:19:39;;;;;;;10.20;4.60;;;;;;;8.94;94.31;103170.69;10586797;28;20071;-80
2021/11/23 08:24:40;;;;;;;14.18;5.47;;;;;;;8.91;94.25;103162.84;10586850;28;20478;-80
2021/11/23 08:29:40;;;;;;;5.47;3.53;;;;;;;8.89;93.35;103170.22;10585676;28;20046;-79
2021/11/23 08:34:41;;;;;;;14.18;5.07;;;;;;;9.33;93.32;103165.53;10550865;28;20036;-79
2021/11/23 08:39:41;;;;;;;17.95;4.25;;;;;;;10.67;94.41;103171.50;10568220;28;20088;-79
2021/11/23 08:44:42;;;;;;;4.15;2.95;;;;;;;10.19;94.61;103157.88;10566060;28;20122;-78
2021/11/23 08:49:42;;;;;;;6.55;3.67;;;;;;;9.71;91.93;103162.16;10584672;28;20023;-79
2021/11/23 08:54:43;;;;;;;12.60;2.90;;;;;;;9.88;91.37;103157.09;10584223;28;20532;-79
2021/11/23 08:59:43;;;;;;;6.97;3.92;;;;;;;10.60;93.51;103164.09;10564744;28;20036;-78
2021/11/23 09:04:44;;;;;;;11.98;3.10;;;;;;;11.10;95.07;103166.63;10584451;28;20459;-79
2021/11/23 09:09:44;;;;;;;10.35;4.22;;;;;;;10.93;94.06;103166.34;10583081;28;20498;-79
2021/11/23 09:14:45;;;;;;;12.00;3.95;;;;;;;11.00;93.73;103166.63;10564974;28;20027;-79
2021/11/23 09:19:45;;;;;;;6.82;3.30;;;;;;;10.94;94.63;103168.09;10564319;28;20465;-79
2021/11/23 09:24:46;;;;;;;13.63;3.33;;;;;;;10.74;94.63;103171.78;10582178;28;20043;-79
2021/11/23 09:29:46;;;;;;;5.22;2.67;;;;;;;10.61;94.55;103166.66;10583438;28;20108;-78
2021/11/23 09:34:47;;;;;;;7.57;2.95;;;;;;;10.55;94.23;103185.34;10565159;28;20455;-79
2021/11/23 09:39:47;;;;;;;6.93;1.98;;;;;;;10.40;94.26;103190.28;10583969;28;20043;-79
2021/11/23 09:44:49;;;;;;;7.15;2.22;;;;;;;10.37;94.97;103186.03;10586721;28;20044;-79
2021/11/23 09:49:49;;;;;;;5.28;1.77;;;;;;;10.60;94.88;103191.19;10564276;28;20370;-79
2021/11/23 09:54:50;;;;;;;11.82;3.38;;;;;;;10.84;95.14;103180.75;10563075;28;20039;-79
2021/11/23 09:59:50;;;;;;;4.85;2.28;;;;;;;10.87;94.30;103187.75;10581357;28;20038;-79
2021/11/23 10:05:04;;;;;;;4.43;2.58;;;;;;;11.17;94.18;103200.31;10564830;28;20126;-79
2021/11/23 10:10:18;;;;;;;3.47;2.50;;;;;;;12.76;93.22;103197.38;10563757;28;20413;-79
2021/11/23 10:15:26;;;;;;;1.80;1.70;;;;;;;12.16;96.87;103189.81;10584334;28;20039;-79
2021/11/23 10:20:35;;;;;;;7.72;1.88;;;;;;;11.62;95.43;103191.47;10582371;28;20038;-79
2021/11/23 10:25:35;;;;;;;2.92;1.55;;;;;;;11.40;95.08;103190.81;10583375;28;20346;-79
2021/11/23 10:30:39;;;;;;;2.50;1.67;;;;;;;11.14;95.33;103195.16;10582468;28;20047;-79
2021/11/23 10:35:39;;;;;;;1.45;1.15;;;;;;;10.88;95.30;103201.19;10584386;28;20027;-78
2021/11/23 10:40:42;;;;;;;1.15;0.88;;;;;;;10.75;95.04;103197.03;10590965;28;20421;-79
2021/11/23 10:45:48;;;;;;;2.42;1.40;;;;;;;10.72;94.90;103184.66;10555867;28;20053;-78
2021/11/23 10:51:06;;;;;;;1.30;0.70;;;;;;;10.76;94.74;103171.66;10572857;28;20034;-78
2021/11/23 10:56:13;;;;;;;0.77;0.77;;;;;;;10.91;94.93;103168.38;10591516;28;20289;-79
2021/11/23 11:01:14;;;;;;;3.15;1.60;;;;;;;11.10;95.07;103161.19;10591664;28;20035;-79
2021/11/23 11:06:15;;;;;;;0.85;0.85;;;;;;;11.37;94.98;103155.84;10571926;28;20547;-79
2021/11/23 11:11:19;;;;;;;0.68;0.68;;;;;;;11.73;95.19;103164.13;10572320;28;20080;-79
2021/11/23 11:16:20;;;;;;;1.25;0.80;;;;;;;11.96;95.52;103150.19;10555695;28;20135;-79
2021/11/23 11:21:21;;;;;;;1.45;0.82;;;;;;;12.13;94.92;103149.38;10590101;28;20055;-79
2021/11/23 11:26:23;;;;;;;1.55;1.08;;;;;;;12.14;94.05;103144.81;10587514;28;20039;-78
2021/11/23 11:31:46;;;;;;;1.35;1.20;;;;;;;12.21;93.38;103145.91;10553686;28;20102;-79
2021/11/23 11:36:47;;;;;;;0.98;0.98;;;;;;;12.75;93.36;103134.00;10570502;28;20039;-79
2021/11/23 11:41:48;;;;;;;1.45;1.35;;;;;;;12.87;94.95;103136.50;10589785;28;20039;-79
2021/11/23 11:47:01;;;;;;;5.85;1.13;;;;;;;12.76;94.12;103133.03;10587651;28;20036;-78
2021/11/23 11:52:02;;;;;;;15.60;2.30;;;;;;;12.64;94.57;103123.41;10590091;28;20036;-79
2021/11/23 11:57:03;;;;;;;1.55;1.45;;;;;;;12.56;94.66;103126.88;10572653;28;20568;-79
2021/11/23 12:02:06;;;;;;;5.47;2.03;;;;;;;12.59;94.81;103116.72;10536377;28;20036;-79
2021/11/23 12:07:11;;;;;;;1.67;1.58;;;;;;;12.57;95.32;103114.13;10587929;28;20039;-79
2021/11/23 12:12:11;;;;;;;6.00;2.17;;;;;;;12.56;94.86;103117.88;10573267;28;20031;-79
2021/11/23 12:17:16;;;;;;;9.02;2.20;;;;;;;12.59;95.07;103117.56;10589332;28;20027;-79
2021/11/23 12:22:22;;;;;;;2.28;1.58;;;;;;;12.44;95.33;103114.53;10571748;28;20039;-79
2021/11/23 12:27:23;;;;;;;3.95;1.13;;;;;;;12.43;94.97;103120.13;10586749;28;20070;-79
2021/11/23 12:32:35;;;;;;;3.95;1.92;;;;;;;12.37;95.18;103112.59;10569046;28;20059;-79
2021/11/23 12:37:41;;;;;;;0.50;0.50;;;;;;;12.37;95.47;103112.59;10551798;28;20031;-79
2021/11/23 12:42:51;;;;;;;11.40;2.13;;;;;;;12.44;95.08;103114.53;10553091;28;20076;-79
2021/11/23 12:47:51;;;;;;;1.00;1.00;;;;;;;12.57;95.47;103104.16;10587504;28;20031;-79
2021/11/23 12:53:01;;;;;;;2.88;1.80;;;;;;;12.58;95.44;103091.41;10586207;28;20485;-78
2021/11/23 12:58:01;;;;;;;14.55;1.95;;;;;;;12.42;95.96;103086.69;10570102;28;20031;-79
2021/11/23 13:03:02;;;;;;;5.65;1.58;;;;;;;12.33;95.68;103091.19;10585637;28;20028;-79
2021/11/23 13:08:08;;;;;;;8.43;0.95;;;;;;;12.28;95.72;103082.66;10586450;28;20053;-80
2021/11/23 13:13:10;;;;;;;1.40;1.13;;;;;;;12.20;95.57;103089.88;10567447;28;20024;-79
2021/11/23 13:18:21;;;;;;;3.88;1.33;;;;;;;12.05;95.83;103084.94;10583771;28;20441;-79
2021/11/23 13:23:39;;;;;;;5.18;1.45;;;;;;;11.93;95.35;103090.75;10565901;28;20031;-78
2021/11/23 13:28:41;;;;;;;4.63;1.45;;;;;;;11.78;94.98;103085.81;10568773;28;20143;-79
2021/11/23 13:33:53;;;;;;;17.40;1.83;;;;;;;11.58;93.48;103095.06;10549158;28;20054;-79
2021/11/23 13:39:00;;;;;;;2.47;1.33;;;;;;;11.14;91.45;103084.84;10547816;28;20484;-80
2021/11/23 13:44:24;;;;;;;9.93;3.97;;;;;;;10.66;90.22;103077.69;10565339;28;20027;-79
2021/11/23 13:49:29;;;;;;;4.55;2.53;;;;;;;10.33;89.91;103087.09;10584993;28;20070;-79
2021/11/23 13:54:43;;;;;;;3.15;1.27;;;;;;;10.48;90.30;103079.41;10567861;28;20035;-79
2021/11/23 14:00:14;;;;;;;6.18;1.42;;;;;;;10.45;90.33;103074.25;10566628;28;20035;-79
2021/11/23 14:05:35;;;;;;;6.10;1.42;;;;;;;10.53;90.48;103076.25;10583222;28;20481;-79
2021/11/23 14:10:38;;;;;;;4.93;1.77;;;;;;;11.06;91.04;103068.44;10589337;28;20027;-79
2021/11/23 14:15:42;;;;;;;1.08;1.08;;;;;;;11.57;94.27;103068.94;10573753;28;20526;-79
2021/11/23 14:20:46;;;;;;;1.05;1.05;;;;;;;11.94;93.63;103057.19;10589883;28;20036;-78
2021/11/23 14:25:57;;;;;;;4.15;1.20;;;;;;;11.89;93.23;103065.78;10591453;28;20106;-79
2021/11/23 14:30:57;;;;;;;2.88;1.45;;;;;;;11.30;92.19;103064.38;10571613;28;20058;-79
2021/11/23 14:35:58;;;;;;;8.73;1.20;;;;;;;10.71;90.60;103069.94;10589604;28;20437;-79
2021/11/23 14:40:59;;;;;;;6.28;2.00;;;;;;;10.32;89.59;103074.56;10589502;28;20028;-79
2021/11/23 14:46:00;;;;;;;3.13;1.45;;;;;;;10.01;88.90;103073.78;10590154;28;20031;-78
2021/11/23 14:51:00;;;;;;;4.82;2.17;;;;;;;9.93;90.02;103063.66;10589877;28;20035;-79
2021/11/23 14:56:03;;;;;;;4.70;1.63;;;;;;;9.73;89.85;103070.03;10589474;28;20062;-79
2021/11/23 15:01:03;;;;;;;3.60;1.98;;;;;;;9.54;89.06;103066.28;10572668;28;20027;-79
2021/11/23 15:06:04;;;;;;;7.63;1.83;;;;;;;9.43;89.31;103066.38;10591605;28;20043;-79
2021/11/23 15:11:04;;;;;;;7.53;1.60;;;;;;;9.33;89.87;103060.09;10590404;28;20127;-79
2021/11/23 15:16:04;;;;;;;7.78;1.60;;;;;;;9.18;89.82;103059.59;10591029;28;20109;-80
2021/11/23 15:21:05;;;;;;;12.02;1.83;;;;;;;9.02;89.96;103061.94;10590149;28;20490;-80
2021/11/23 15:26:05;;;;;;;1.38;1.33;;;;;;;8.89;89.42;103069.41;10588380;28;20142;-79
2021/11/23 15:31:09;;;;;;;2.45;2.00;;;;;;;8.76;89.55;103066.91;10588762;28;20027;-79
2021/11/23 15:36:09;;;;;;;3.75;1.90;;;;;;;8.66;89.57;103064.16;10588224;28;20031;-79
2021/11/23 15:41:13;;;;;;;6.38;3.33;;;;;;;8.58;89.98;103055.81;10588783;28;20040;-79
2021/11/23 15:46:13;;;;;;;15.52;2.50;;;;;;;8.45;89.41;103064.13;10588644;28;20035;-79
2021/11/23 15:51:13;;;;;;;2.28;1.63;;;;;;;8.29;88.91;103069.06;10589534;28;20027;-79
2021/11/23 15:56:16;;;;;;;7.45;2.25;;;;;;;8.11;88.42;103066.94;10587775;28;20463;-79
2021/11/23 16:01:16;;;;;;;6.88;2.45;;;;;;;7.94;88.02;103062.09;10570560;28;20039;-79
2021/11/23 16:06:17;;;;;;;10.30;2.83;;;;;;;7.86;88.46;103064.56;10552440;28;20123;-79
2021/11/23 16:11:18;;;;;;;8.73;2.88;;;;;;;7.80;88.66;103068.63;10588737;28;20051;-79
2021/11/23 16:16:18;;;;;;;2.80;2.03;;;;;;;7.76;88.95;103074.41;10594854;28;20020;-80
2021/11/23 16:21:24;;;;;;;5.72;2.22;;;;;;;7.71;88.80;103068.53;10598875;28;20047;-79
2021/11/23 16:26:25;;;;;;;3.58;2.72;;;;;;;7.66;89.43;103067.06;10592658;28;20487;-79
2021/11/23 16:31:26;;;;;;;6.50;2.80;;;;;;;7.66;89.96;103071.63;10586782;28;20080;-79
2021/11/23 16:36:26;;;;;;;7.22;3.58;;;;;;;7.69;90.16;103072.22;10550456;28;20506;-79
2021/11/23 16:41:27;;;;;;;3.40;2.60;;;;;;;7.77;90.34;103071.56;10584620;28;20035;-79
2021/11/23 16:46:27;;;;;;;10.00;4.43;;;;;;;7.83;90.79;103068.38;10584673;28;20035;-79
2021/11/23 16:51:28;;;;;;;7.50;2.20;;;;;;;7.98;91.84;103055.47;10567350;28;20039;-79
2021/11/23 16:56:28;;;;;;;9.85;3.50;;;;;;;8.14;93.14;103050.50;10584866;28;20035;-79
2021/11/23 17:01:29;;;;;;;6.95;2.72;;;;;;;8.30;93.29;103058.16;10566349;28;20064;-79
2021/11/23 17:06:29;;;;;;;5.75;2.67;;;;;;;8.45;93.71;103066.81;10583603;28;20038;-79
2021/11/23 17:11:30;;;;;;;7.50;4.07;;;;;;;8.56;94.23;103065.94;10582842;28;20039;-79
2021/11/23 17:16:30;;;;;;;4.70;2.90;;;;;;;8.69;94.41;103065.72;10582788;28;20056;-79
2021/11/23 17:21:30;;;;;;;13.25;2.72;;;;;;;8.78;94.40;103067.63;10583319;28;20036;-79
2021/11/23 17:26:31;;;;;;;2.42;2.17;;;;;;;8.85;94.62;103066.97;10565560;28;20402;-79
2021/11/23 17:31:32;;;;;;;8.98;2.30;;;;;;;8.88;94.08;103055.03;10584177;28;20044;-79
2021/11/23 17:36:32;;;;;;;10.65;2.83;;;;;;;8.91;94.42;103057.47;10548827;28;20040;-79
2021/11/23 17:41:32;;;;;;;3.33;2.00;;;;;;;8.92;94.42;103055.63;10565809;28;20058;-80
2021/11/23 17:46:33;;;;;;;3.97;2.38;;;;;;;8.93;94.16;103060.03;10583665;28;20493;-79
2021/11/23 17:51:33;;;;;;;1.58;1.48;;;;;;;8.90;93.51;103049.50;10585025;28;20445;-79
2021/11/23 17:56:34;;;;;;;3.75;2.55;;;;;;;8.90;93.36;103052.19;10584527;28;20039;-80
2021/11/23 18:01:34;;;;;;;4.35;2.20;;;;;;;8.88;93.95;103060.44;10564392;28;20107;-79
2021/11/23 18:06:34;;;;;;;4.10;2.13;;;;;;;8.88;94.03;103046.94;10582634;28;20044;-80
2021/11/23 18:11:35;;;;;;;10.80;2.78;;;;;;;8.88;94.09;103049.63;10582334;28;20059;-79
2021/11/23 18:16:36;;;;;;;4.10;2.17;;;;;;;8.90;94.23;103047.63;10581940;28;20470;-79
2021/11/23 18:21:38;;;;;;;8.23;3.33;;;;;;;8.91;94.33;103043.13;10565030;28;20043;-79
2021/11/23 18:26:38;;;;;;;2.53;2.28;;;;;;;8.88;93.81;103046.94;10548189;28;20413;-79
2021/11/23 18:31:39;;;;;;;9.90;4.10;;;;;;;8.83;93.95;103044.63;10592342;28;20035;-80
2021/11/23 18:36:39;;;;;;;4.03;3.08;;;;;;;8.80;93.93;103044.88;10595671;28;20046;-79
2021/11/23 18:41:40;;;;;;;7.05;2.90;;;;;;;8.81;94.24;103043.06;10582510;28;20036;-79
2021/11/23 18:46:40;;;;;;;6.15;2.40;;;;;;;8.80;93.86;103044.88;10564211;28;20119;-79
2021/11/23 18:51:41;;;;;;;18.42;3.35;;;;;;;8.80;94.52;103035.94;10562864;28;20039;-79
2021/11/23 18:56:41;;;;;;;4.20;2.72;;;;;;;8.76;94.45;103032.63;10582775;28;20027;-79
2021/11/23 19:01:42;;;;;;;3.58;2.40;;;;;;;8.73;94.48;103035.59;10589629;28;20042;-79
2021/11/23 19:06:42;;;;;;;3.83;2.92;;;;;;;8.75;95.12;103027.38;10591994;28;20030;-80
2021/11/23 19:11:43;;;;;;;5.85;3.80;;;;;;;8.76;94.72;103029.94;10554910;28;20035;-79
2021/11/23 19:16:43;;;;;;;14.07;3.53;;;;;;;8.76;94.31;103029.94;10554305;28;20378;-79
2021/11/23 19:21:44;;;;;;;10.80;2.60;;;;;;;8.74;94.45;103036.47;10590889;28;20039;-80
2021/11/23 19:26:45;;;;;;;3.38;2.75;;;;;;;8.70;94.87;103040.41;10589979;28;20457;-79
2021/11/23 19:31:45;;;;;;;9.85;3.22;;;;;;;8.57;94.28;103033.38;10590417;28;20047;-79
2021/11/23 19:36:46;;;;;;;6.00;3.95;;;;;;;8.36;93.25;103030.66;10571399;28;20036;-80
2021/11/23 19:41:46;;;;;;;3.25;2.65;;;;;;;8.03;91.10;103031.66;10591643;28;20065;-79
2021/11/23 19:46:47;;;;;;;12.68;3.53;;;;;;;7.61;88.80;103028.81;10588822;28;20036;-81
2021/11/23 19:51:47;;;;;;;14.13;6.03;;;;;;;7.34;88.88;103025.66;10589606;28;20066;-81
2021/11/23 19:56:48;;;;;;;17.80;7.25;;;;;;;7.12;87.99;103027.44;10588471;28;20031;-82
2021/11/23 20:01:50;;;;;;;17.75;8.30;;;;;;;6.88;87.77;103026.66;10570474;28;20089;-84
2021/11/23 20:06:52;;;;;;;15.70;8.00;;;;;;;6.74;87.73;103028.63;10588555;28;20031;-83
2021/11/23 20:11:52;;;;;;;34.25;13.13;;;;;;;6.59;88.41;103035.19;10587208;28;20043;-83
2021/11/23 20:16:52;;;;;;;14.57;11.82;;;;;;;6.46;88.20;103029.91;10568043;28;20034;-81
2021/11/23 20:21:53;;;;;;;15.00;11.48;;;;;;;6.28;88.00;103024.09;10568726;28;20035;-84
2021/11/23 20:26:53;;;;;;;31.77;20.30;;;;;;;6.17;88.87;103021.38;10585846;28;20427;-81
2021/11/23 20:31:54;;;;;;;22.75;14.63;;;;;;;6.11;89.14;103015.59;10569692;28;20043;-82
2021/11/23 20:36:56;;;;;;;17.50;11.65;;;;;;;5.98;88.61;103018.34;10569561;28;20034;-84
2021/11/23 20:41:57;;;;;;;19.58;11.77;;;;;;;5.90;88.35;103018.03;10588655;28;20061;-82
2021/11/23 20:46:57;;;;;;;29.38;19.73;;;;;;;5.83;89.27;103018.47;10586799;28;20034;-82
2021/11/23 20:51:59;;;;;;;18.77;11.55;;;;;;;5.77;88.87;103007.34;10587229;28;20035;-79
2021/11/23 20:56:59;;;;;;;14.80;8.88;;;;;;;5.75;90.00;103007.47;10583658;28;20070;-78
2021/11/23 21:02:01;;;;;;;29.15;12.52;;;;;;;5.69;89.09;103010.59;10585451;28;20063;-78
2021/11/23 21:07:01;;;;;;;22.13;13.10;;;;;;;5.52;87.94;103006.47;10583722;28;20028;-79
2021/11/23 21:12:02;;;;;;;22.77;14.27;;;;;;;5.38;88.22;102995.00;10565502;28;20036;-81
2021/11/23 21:17:02;;;;;;;32.95;12.88;;;;;;;5.29;88.17;102991.16;10583364;28;20036;-78
2021/11/23 21:22:03;;;;;;;16.30;10.68;;;;;;;5.39;89.24;102989.50;10565259;28;20063;-79
2021/11/23 21:27:03;;;;;;;17.50;11.60;;;;;;;5.52;90.43;102987.66;10583166;28;20048;-79
2021/11/23 21:32:04;;;;;;;13.38;10.68;;;;;;;5.74;91.80;102972.63;10584628;28;20409;-79
2021/11/23 21:42:20;;;;;;;19.55;12.27;;;;;;;6.22;93.84;102983.34;10582556;28;20088;-79
2021/11/23 21:47:21;;;;;;;21.58;11.68;;;;;;;6.39;94.59;102988.28;10582399;28;20112;-80
2021/11/23 21:52:21;;;;;;;20.65;12.25;;;;;;;6.54;95.03;102980.88;10583192;28;20091;-80
2021/11/23 21:57:22;;;;;;;15.85;11.05;;;;;;;6.71;94.84;102966.06;10548969;28;20043;-80
2021/11/23 22:02:22;;;;;;;18.40;11.60;;;;;;;6.85;94.91;102963.13;10583715;28;20367;-80
2021/11/23 22:07:23;;;;;;;19.65;11.77;;;;;;;6.96;95.01;102965.84;10581847;28;20031;-80
2021/11/23 22:12:25;;;;;;;20.33;12.40;;;;;;;7.04;94.91;102975.97;10582532;28;20032;-79
2021/11/23 22:17:25;;;;;;;13.57;11.15;;;;;;;7.09;94.98;102976.47;10564026;28;20529;-79
2021/11/23 22:22:26;;;;;;;20.17;10.48;;;;;;;7.13;94.95;102972.53;10581522;28;20051;-80
2021/11/23 22:27:27;;;;;;;33.25;10.43;;;;;;;7.17;94.81;102965.91;10581640;28;20052;-79
2021/11/23 22:32:27;;;;;;;11.32;8.77;;;;;;;7.19;94.90;102972.06;10584407;28;20043;-79
2021/11/23 22:37:27;;;;;;;12.77;9.30;;;;;;;7.22;94.90;102977.19;10591250;28;20043;-79
2021/11/23 22:42:28;;;;;;;18.70;12.32;;;;;;;7.21;94.89;102967.41;10590143;28;20386;-80
2021/11/23 22:47:28;;;;;;;11.13;8.52;;;;;;;7.13;94.83;102969.00;10571134;28;20032;-80
2021/11/23 22:52:29;;;;;;;13.18;7.85;;;;;;;7.05;94.93;102961.56;10571535;28;20043;-79
2021/11/23 22:57:29;;;;;;;12.85;8.23;;;;;;;7.03;95.05;102954.56;10573009;28;20092;-80
2021/11/23 23:02:29;;;;;;;22.27;10.63;;;;;;;7.01;95.33;102948.44;10589610;28;20118;-80
2021/11/23 23:07:30;;;;;;;12.85;11.00;;;;;;;6.97;95.10;102940.59;10592062;28;20036;-80
2021/11/23 23:12:30;;;;;;;12.07;7.88;;;;;;;6.96;95.34;102935.34;10591197;28;20065;-80
2021/11/23 23:17:31;;;;;;;15.35;9.95;;;;;;;6.96;95.21;102933.50;10569989;28;20046;-79